Time;durP1;ratioP1;P1;durP2;ratioP2;P2;SDS_P1;SDS_P2;PMS_P1;PMS_P2;Temp;Humidity;BMP_temperature;BMP_pressure;BME280_temperature;BME280_humidity;BME280_pressure;Samples;Min_cycle;Max_cycle;Signal;HPM_P1;HPM_P2
2022/03/11 00:01:54;;;;;;;11.60;8.27;;;;;;;;;;5067526;28;20267;-83
2022/03/11 00:04:20;;;;;;;15.30;9.27;;;;;;;;;;5066980;28;20181;-83
2022/03/11 00:06:46;;;;;;;11.53;8.53;;;;;;;;;;5074701;28;20185;-83
2022/03/11 00:09:12;;;;;;;11.50;8.57;;;;;;;;;;5072089;28;20550;-83
2022/03/11 00:11:39;;;;;;;14.97;8.50;;;;;;;;;;5056070;28;20216;-83
2022/03/11 00:14:05;;;;;;;13.50;9.63;;;;;;;;;;5056153;28;20260;-83
2022/03/11 00:16:31;;;;;;;14.03;9.60;;;;;;;;;;5071393;28;20193;-84
2022/03/11 00:18:57;;;;;;;11.93;8.93;;;;;;;;;;5072945;28;20209;-83
2022/03/11 00:21:25;;;;;;;11.83;8.27;;;;;;;;;;5054398;28;20197;-83
2022/03/11 00:23:51;;;;;;;11.47;8.67;;;;;;;;;;5066544;28;20182;-83
2022/03/11 00:26:17;;;;;;;14.93;9.17;;;;;;;;;;5071298;28;20181;-82
2022/03/11 00:28:43;;;;;;;12.50;9.07;;;;;;;;;;5072979;28;20173;-83
2022/03/11 00:31:09;;;;;;;14.50;10.10;;;;;;;;;;5071298;28;20208;-83
2022/03/11 00:33:36;;;;;;;12.60;9.27;;;;;;;;;;5052911;28;20178;-83
2022/03/11 00:36:02;;;;;;;14.97;10.33;;;;;;;;;;5035971;28;20659;-83
2022/03/11 00:38:28;;;;;;;14.03;9.50;;;;;;;;;;5073678;28;20597;-82
2022/03/11 00:40:56;;;;;;;14.30;10.47;;;;;;;;;;5074290;28;20280;-83
2022/03/11 00:43:23;;;;;;;14.47;9.27;;;;;;;;;;5072517;28;20181;-82
2022/03/11 00:45:49;;;;;;;15.77;10.23;;;;;;;;;;5075396;28;20636;-83
2022/03/11 00:48:16;;;;;;;16.03;11.40;;;;;;;;;;5073728;28;20181;-82
2022/03/11 00:50:42;;;;;;;15.77;10.67;;;;;;;;;;5071126;28;20205;-83
2022/03/11 00:53:08;;;;;;;13.80;9.67;;;;;;;;;;5072986;28;20197;-82
2022/03/11 00:55:36;;;;;;;14.20;9.77;;;;;;;;;;5056129;28;20196;-82
2022/03/11 00:58:02;;;;;;;16.17;10.07;;;;;;;;;;5054733;28;20284;-82
2022/03/11 01:00:29;;;;;;;17.80;11.00;;;;;;;;;;5079401;28;20303;-83
2022/03/11 01:02:55;;;;;;;15.83;10.57;;;;;;;;;;5054365;28;20551;-83
2022/03/11 01:05:24;;;;;;;15.43;10.57;;;;;;;;;;5051262;28;20247;-82
2022/03/11 01:07:51;;;;;;;19.87;11.83;;;;;;;;;;5076218;28;20187;-82
2022/03/11 01:10:17;;;;;;;19.87;11.90;;;;;;;;;;5075566;28;20580;-83
2022/03/11 01:12:44;;;;;;;16.10;10.77;;;;;;;;;;5058814;28;20267;-82
2022/03/11 01:15:10;;;;;;;17.73;11.83;;;;;;;;;;5075793;28;20185;-83
2022/03/11 01:17:37;;;;;;;16.03;10.80;;;;;;;;;;5075532;28;20203;-82
2022/03/11 01:20:06;;;;;;;17.13;11.37;;;;;;;;;;5065796;28;20757;-82
2022/03/11 01:22:33;;;;;;;23.90;12.80;;;;;;;;;;5058736;28;20185;-82
2022/03/11 01:24:59;;;;;;;18.13;11.73;;;;;;;;;;5059615;28;20670;-83
2022/03/11 01:27:25;;;;;;;16.50;11.10;;;;;;;;;;5058201;28;20216;-82
2022/03/11 01:29:51;;;;;;;19.53;12.00;;;;;;;;;;5076819;28;20204;-83
2022/03/11 01:32:18;;;;;;;18.90;11.83;;;;;;;;;;5075754;28;20216;-83
2022/03/11 01:34:44;;;;;;;17.40;11.47;;;;;;;;;;5076089;28;20177;-83
2022/03/11 01:37:10;;;;;;;18.00;12.23;;;;;;;;;;5075766;28;20182;-82
2022/03/11 01:39:38;;;;;;;22.67;12.00;;;;;;;;;;5059368;28;20197;-82
2022/03/11 01:42:04;;;;;;;17.53;12.50;;;;;;;;;;5075463;28;20188;-83
2022/03/11 01:44:30;;;;;;;17.40;12.27;;;;;;;;;;5074816;28;20189;-84
2022/03/11 01:46:57;;;;;;;18.07;11.90;;;;;;;;;;5057341;28;20185;-83
2022/03/11 01:49:23;;;;;;;19.20;12.53;;;;;;;;;;5068508;28;20184;-82
2022/03/11 01:51:50;;;;;;;20.40;12.17;;;;;;;;;;5076517;28;20181;-83
2022/03/11 01:54:16;;;;;;;21.03;12.03;;;;;;;;;;5078509;28;20177;-83
2022/03/11 01:56:43;;;;;;;17.77;12.17;;;;;;;;;;5058062;28;20185;-82
2022/03/11 01:59:11;;;;;;;18.10;12.40;;;;;;;;;;5056287;28;20208;-83
2022/03/11 02:01:37;;;;;;;21.87;13.37;;;;;;;;;;5053207;28;20210;-82
2022/03/11 02:04:04;;;;;;;16.83;11.83;;;;;;;;;;5050874;28;20189;-82
2022/03/11 02:06:30;;;;;;;19.43;13.30;;;;;;;;;;5088020;28;20217;-83
2022/03/11 02:08:58;;;;;;;17.17;12.33;;;;;;;;;;5075276;28;20185;-82
2022/03/11 02:11:24;;;;;;;17.00;12.20;;;;;;;;;;5067907;28;20205;-82
2022/03/11 02:13:56;;;;;;;21.07;13.77;;;;;;;;;;5052143;28;20207;-82
2022/03/11 02:16:26;;;;;;;23.27;15.93;;;;;;;;;;5073939;28;20189;-83
2022/03/11 02:18:53;;;;;;;19.33;14.20;;;;;;;;;;5054574;28;20248;-82
2022/03/11 02:21:20;;;;;;;25.43;14.00;;;;;;;;;;5054599;28;20208;-82
2022/03/11 02:23:47;;;;;;;22.63;13.60;;;;;;;;;;5074796;28;20549;-82
2022/03/11 02:26:14;;;;;;;22.40;14.37;;;;;;;;;;5076205;28;20181;-83
2022/03/11 02:28:40;;;;;;;23.07;13.63;;;;;;;;;;5054472;28;20212;-83
2022/03/11 02:31:07;;;;;;;19.03;13.13;;;;;;;;;;5073909;28;20193;-83
2022/03/11 02:33:33;;;;;;;20.30;14.13;;;;;;;;;;5073853;28;20188;-83
2022/03/11 02:35:59;;;;;;;19.40;13.73;;;;;;;;;;5073673;28;20185;-83
2022/03/11 02:38:26;;;;;;;30.67;16.47;;;;;;;;;;5058400;28;20188;-82
2022/03/11 02:40:52;;;;;;;21.27;13.23;;;;;;;;;;5060193;28;20209;-82
2022/03/11 02:43:18;;;;;;;19.93;14.20;;;;;;;;;;5041187;28;20608;-82
2022/03/11 02:45:45;;;;;;;21.03;13.83;;;;;;;;;;5073966;28;21004;-83
2022/03/11 02:48:11;;;;;;;19.23;13.43;;;;;;;;;;5091263;28;20675;-82
2022/03/11 02:50:37;;;;;;;19.37;13.87;;;;;;;;;;5072897;28;20201;-83
2022/03/11 02:53:04;;;;;;;25.23;14.63;;;;;;;;;;5054159;28;20194;-82
2022/03/11 02:55:30;;;;;;;19.50;13.27;;;;;;;;;;5073020;28;20185;-83
2022/03/11 02:57:56;;;;;;;20.77;14.80;;;;;;;;;;5056185;28;20188;-82
2022/03/11 03:00:22;;;;;;;27.60;15.07;;;;;;;;;;5072430;28;20296;-82
2022/03/11 03:02:48;;;;;;;20.87;14.67;;;;;;;;;;5071014;28;20189;-83
2022/03/11 03:05:15;;;;;;;27.63;14.87;;;;;;;;;;5065865;28;20483;-82
2022/03/11 03:07:42;;;;;;;20.27;14.60;;;;;;;;;;5069197;28;20178;-82
2022/03/11 03:10:10;;;;;;;22.17;14.97;;;;;;;;;;5056077;28;20673;-83
2022/03/11 03:12:37;;;;;;;21.90;14.63;;;;;;;;;;5060083;28;20185;-82
2022/03/11 03:15:05;;;;;;;21.57;15.67;;;;;;;;;;5046173;28;20177;-82
2022/03/11 03:17:31;;;;;;;23.70;14.93;;;;;;;;;;5065117;28;20193;-83
2022/03/11 03:19:57;;;;;;;23.50;16.40;;;;;;;;;;5055887;28;20209;-83
2022/03/11 03:22:23;;;;;;;25.10;14.63;;;;;;;;;;5066638;28;20182;-82
2022/03/11 03:24:49;;;;;;;23.03;15.33;;;;;;;;;;5060981;28;20181;-82
2022/03/11 03:27:16;;;;;;;25.27;16.60;;;;;;;;;;5072315;28;20181;-82
2022/03/11 03:29:43;;;;;;;23.37;15.00;;;;;;;;;;5072018;28;20228;-83
2022/03/11 03:32:09;;;;;;;23.93;15.80;;;;;;;;;;5070592;28;20180;-82
2022/03/11 03:34:37;;;;;;;28.50;15.83;;;;;;;;;;5054535;28;20622;-83
2022/03/11 03:37:04;;;;;;;22.53;15.97;;;;;;;;;;5049841;28;20197;-82
2022/03/11 03:39:31;;;;;;;26.27;15.97;;;;;;;;;;5065975;28;20575;-82
2022/03/11 03:41:57;;;;;;;24.63;16.73;;;;;;;;;;5064301;28;20188;-83
2022/03/11 03:44:23;;;;;;;27.03;16.40;;;;;;;;;;5069036;28;20213;-82
2022/03/11 03:46:49;;;;;;;23.37;15.23;;;;;;;;;;5070135;28;20578;-82
2022/03/11 03:49:16;;;;;;;25.20;15.60;;;;;;;;;;5063634;28;20185;-82
2022/03/11 03:51:42;;;;;;;23.53;16.30;;;;;;;;;;5073949;28;20205;-82
2022/03/11 03:54:11;;;;;;;24.60;16.07;;;;;;;;;;5057599;28;20181;-82
2022/03/11 03:56:38;;;;;;;25.27;16.17;;;;;;;;;;5083615;28;20695;-82
2022/03/11 03:59:05;;;;;;;27.23;15.73;;;;;;;;;;5072873;28;20701;-82
2022/03/11 04:01:35;;;;;;;23.87;15.70;;;;;;;;;;5074952;28;21809;-83
2022/03/11 04:04:05;;;;;;;23.77;16.07;;;;;;;;;;5092021;28;20189;-82
2022/03/11 04:06:32;;;;;;;24.50;15.00;;;;;;;;;;5082772;28;20193;-82
2022/03/11 04:08:58;;;;;;;27.30;16.30;;;;;;;;;;5056975;28;20336;-81
2022/03/11 04:11:25;;;;;;;24.80;15.80;;;;;;;;;;5073558;28;20215;-81
2022/03/11 04:13:52;;;;;;;25.40;16.40;;;;;;;;;;5073086;28;20185;-81
2022/03/11 04:16:18;;;;;;;22.07;15.10;;;;;;;;;;5076026;28;20268;-80
2022/03/11 04:18:45;;;;;;;24.23;15.67;;;;;;;;;;5075261;28;20177;-80
2022/03/11 04:21:14;;;;;;;22.13;15.17;;;;;;;;;;5069747;28;20270;-80
2022/03/11 04:23:43;;;;;;;23.67;15.60;;;;;;;;;;5076493;28;20175;-81
2022/03/11 04:26:10;;;;;;;22.37;15.23;;;;;;;;;;5041836;28;20614;-81
2022/03/11 04:28:37;;;;;;;21.43;15.27;;;;;;;;;;5073852;28;20181;-82
2022/03/11 04:31:04;;;;;;;22.80;15.90;;;;;;;;;;5076485;28;20212;-81
2022/03/11 04:33:30;;;;;;;24.97;16.53;;;;;;;;;;5072150;28;20864;-81
2022/03/11 04:35:56;;;;;;;23.57;15.37;;;;;;;;;;5069103;28;20249;-81
2022/03/11 04:38:23;;;;;;;25.37;16.20;;;;;;;;;;5065512;28;20173;-81
2022/03/11 04:40:49;;;;;;;23.10;15.47;;;;;;;;;;5072766;28;20224;-82
2022/03/11 04:43:15;;;;;;;21.80;14.77;;;;;;;;;;5052371;28;20188;-81
2022/03/11 04:45:42;;;;;;;26.47;15.77;;;;;;;;;;5060275;28;20193;-81
2022/03/11 04:48:08;;;;;;;23.70;14.97;;;;;;;;;;5042694;28;20239;-81
2022/03/11 04:50:34;;;;;;;24.53;14.57;;;;;;;;;;5074042;28;20205;-83
2022/03/11 04:53:01;;;;;;;22.10;14.67;;;;;;;;;;5074546;28;20311;-81
2022/03/11 04:55:27;;;;;;;21.30;14.57;;;;;;;;;;5059681;28;20185;-81
2022/03/11 04:57:53;;;;;;;24.37;15.27;;;;;;;;;;5058055;28;20205;-81
2022/03/11 05:00:19;;;;;;;21.30;14.47;;;;;;;;;;5079211;28;20247;-81
2022/03/11 05:02:46;;;;;;;23.57;14.20;;;;;;;;;;5078384;28;20321;-81
2022/03/11 05:05:13;;;;;;;20.80;13.50;;;;;;;;;;5078384;28;20242;-82
2022/03/11 05:07:39;;;;;;;19.87;14.20;;;;;;;;;;5041797;28;20598;-81
2022/03/11 05:10:10;;;;;;;19.97;13.30;;;;;;;;;;5080345;28;20584;-81
2022/03/11 05:12:40;;;;;;;20.17;13.87;;;;;;;;;;5060256;28;20676;-81
2022/03/11 05:15:06;;;;;;;21.73;13.70;;;;;;;;;;5071943;28;20551;-81
2022/03/11 05:17:33;;;;;;;20.57;13.90;;;;;;;;;;5074784;28;20199;-81
2022/03/11 05:19:59;;;;;;;22.33;14.80;;;;;;;;;;5074035;28;20251;-81
2022/03/11 05:22:26;;;;;;;19.57;13.03;;;;;;;;;;5059960;28;20181;-81
2022/03/11 05:24:52;;;;;;;21.20;14.70;;;;;;;;;;5042932;28;20191;-81
2022/03/11 05:27:18;;;;;;;19.37;12.97;;;;;;;;;;5056641;28;20189;-81
2022/03/11 05:29:45;;;;;;;19.93;13.00;;;;;;;;;;5071316;28;20236;-81
2022/03/11 05:32:13;;;;;;;18.10;12.10;;;;;;;;;;5059582;28;20185;-81
2022/03/11 05:34:40;;;;;;;21.50;12.93;;;;;;;;;;5071651;28;20190;-81
2022/03/11 05:37:07;;;;;;;16.77;11.90;;;;;;;;;;5079088;28;20311;-83
2022/03/11 05:39:34;;;;;;;18.00;12.40;;;;;;;;;;5080724;28;20212;-83
2022/03/11 05:42:00;;;;;;;18.40;12.50;;;;;;;;;;5092759;28;20189;-82
2022/03/11 05:44:26;;;;;;;21.03;13.23;;;;;;;;;;5077922;28;20645;-81
2022/03/11 05:46:53;;;;;;;19.07;12.60;;;;;;;;;;5081859;28;20181;-82
2022/03/11 05:49:20;;;;;;;18.80;12.77;;;;;;;;;;5078503;28;20192;-81
2022/03/11 05:51:46;;;;;;;20.40;12.67;;;;;;;;;;5076344;28;20292;-87
2022/03/11 05:54:12;;;;;;;17.87;11.83;;;;;;;;;;5046482;28;20189;-85
2022/03/11 05:56:38;;;;;;;18.90;11.70;;;;;;;;;;5066344;28;20193;-84
2022/03/11 05:59:05;;;;;;;19.27;12.70;;;;;;;;;;5038665;28;20213;-84
2022/03/11 06:01:35;;;;;;;17.87;12.30;;;;;;;;;;5051283;28;20299;-84
2022/03/11 06:04:03;;;;;;;18.33;12.00;;;;;;;;;;5082753;28;20178;-84
2022/03/11 06:06:32;;;;;;;17.27;11.87;;;;;;;;;;5065525;28;20189;-85
2022/03/11 06:08:59;;;;;;;17.90;11.67;;;;;;;;;;5048074;28;20204;-85
2022/03/11 06:11:27;;;;;;;17.60;12.03;;;;;;;;;;5079171;28;20197;-84
2022/03/11 06:13:54;;;;;;;19.40;12.07;;;;;;;;;;5064446;28;20189;-84
2022/03/11 06:16:20;;;;;;;17.17;10.93;;;;;;;;;;5075626;28;20184;-84
2022/03/11 06:18:46;;;;;;;17.03;11.47;;;;;;;;;;5061711;28;20196;-85
2022/03/11 06:21:12;;;;;;;17.30;11.73;;;;;;;;;;5058276;28;20208;-84
2022/03/11 06:23:38;;;;;;;18.00;11.77;;;;;;;;;;5061792;28;20181;-84
2022/03/11 06:26:05;;;;;;;18.57;12.50;;;;;;;;;;5078035;28;20185;-83
2022/03/11 06:28:31;;;;;;;19.53;12.27;;;;;;;;;;5076336;28;20199;-78
2022/03/11 06:30:57;;;;;;;20.83;12.57;;;;;;;;;;5058929;28;20201;-88
2022/03/11 06:33:23;;;;;;;16.57;11.63;;;;;;;;;;5041094;28;20276;-87
2022/03/11 06:35:50;;;;;;;17.10;11.30;;;;;;;;;;5058059;28;20189;-80
2022/03/11 06:38:17;;;;;;;17.23;10.93;;;;;;;;;;5076042;28;20251;-81
2022/03/11 06:40:49;;;;;;;17.90;11.77;;;;;;;;;;5074310;28;20231;-87
2022/03/11 06:43:17;;;;;;;15.03;11.03;;;;;;;;;;5055978;28;20174;-81
2022/03/11 06:45:43;;;;;;;16.83;10.90;;;;;;;;;;5072110;28;20227;-84
2022/03/11 06:48:14;;;;;;;16.63;11.43;;;;;;;;;;5079059;28;20200;-87
2022/03/11 06:50:41;;;;;;;16.73;11.07;;;;;;;;;;5048369;28;20217;-86
2022/03/11 06:53:07;;;;;;;16.57;10.93;;;;;;;;;;5055939;28;20554;-86
2022/03/11 06:55:33;;;;;;;15.10;10.90;;;;;;;;;;5051018;28;20173;-86
2022/03/11 06:58:00;;;;;;;17.97;11.23;;;;;;;;;;5031039;28;20221;-87
2022/03/11 07:00:27;;;;;;;17.27;10.90;;;;;;;;;;5063391;28;20212;-86
2022/03/11 07:02:53;;;;;;;16.13;11.10;;;;;;;;;;5063145;28;20243;-87
2022/03/11 07:05:20;;;;;;;15.67;10.83;;;;;;;;;;5072628;28;20209;-87
2022/03/11 07:07:46;;;;;;;16.57;10.80;;;;;;;;;;5054771;28;20276;-87
2022/03/11 07:10:16;;;;;;;15.97;10.93;;;;;;;;;;5036026;28;20209;-87
2022/03/11 07:12:42;;;;;;;18.70;11.03;;;;;;;;;;5059990;28;20472;-82
2022/03/11 07:15:10;;;;;;;19.43;12.00;;;;;;;;;;5076991;28;20250;-89
2022/03/11 07:17:37;;;;;;;15.17;10.70;;;;;;;;;;5052628;28;20205;-87
2022/03/11 07:20:05;;;;;;;16.07;10.80;;;;;;;;;;5047674;28;20212;-87
2022/03/11 07:22:34;;;;;;;15.77;11.10;;;;;;;;;;5052198;28;20269;-87
2022/03/11 07:25:03;;;;;;;13.93;10.47;;;;;;;;;;5042866;28;20201;-87
2022/03/11 07:27:29;;;;;;;14.60;10.60;;;;;;;;;;5068851;28;20177;-87
2022/03/11 07:29:56;;;;;;;15.47;10.60;;;;;;;;;;5049706;28;20205;-87
2022/03/11 07:32:23;;;;;;;17.37;10.40;;;;;;;;;;5057171;28;20216;-87
2022/03/11 07:34:49;;;;;;;17.30;10.33;;;;;;;;;;5071331;28;20212;-88
2022/03/11 07:37:15;;;;;;;17.07;10.50;;;;;;;;;;5066562;28;20656;-87
2022/03/11 07:39:43;;;;;;;16.23;10.50;;;;;;;;;;5048382;28;20224;-88
2022/03/11 07:42:09;;;;;;;15.60;10.00;;;;;;;;;;5043922;28;20205;-87
2022/03/11 07:44:43;;;;;;;15.57;10.83;;;;;;;;;;5065822;28;20211;-87
2022/03/11 07:47:09;;;;;;;15.33;10.57;;;;;;;;;;5060350;28;20190;-87
2022/03/11 07:49:36;;;;;;;14.87;10.07;;;;;;;;;;5064710;28;20201;-86
2022/03/11 07:52:05;;;;;;;15.57;9.77;;;;;;;;;;5056157;28;20645;-88
2022/03/11 07:54:31;;;;;;;13.40;9.77;;;;;;;;;;5057124;28;20197;-87
2022/03/11 07:56:58;;;;;;;17.37;10.40;;;;;;;;;;5060323;28;20197;-89
2022/03/11 07:59:28;;;;;;;14.03;10.67;;;;;;;;;;5037670;28;20792;-89
2022/03/11 08:01:54;;;;;;;19.30;10.60;;;;;;;;;;5067199;28;20181;-88
2022/03/11 08:04:25;;;;;;;15.50;10.27;;;;;;;;;;5053122;28;20188;-88
2022/03/11 08:06:52;;;;;;;15.37;9.87;;;;;;;;;;5071110;28;20731;-87
2022/03/11 08:09:18;;;;;;;16.53;9.63;;;;;;;;;;5056371;28;20189;-87
2022/03/11 08:11:47;;;;;;;13.20;9.40;;;;;;;;;;5071801;28;20715;-87
2022/03/11 08:14:14;;;;;;;14.43;9.70;;;;;;;;;;5036593;28;20185;-88
2022/03/11 08:16:40;;;;;;;16.23;10.37;;;;;;;;;;5041049;28;20181;-88
2022/03/11 08:19:09;;;;;;;14.40;9.73;;;;;;;;;;5041548;28;20216;-88
2022/03/11 08:21:36;;;;;;;14.83;9.63;;;;;;;;;;5072779;28;20223;-87
2022/03/11 08:24:03;;;;;;;13.93;9.50;;;;;;;;;;5065245;28;20195;-88
2022/03/11 08:26:29;;;;;;;19.93;10.23;;;;;;;;;;5104294;28;20189;-87
2022/03/11 08:28:58;;;;;;;15.00;10.03;;;;;;;;;;5056235;28;20196;-89
2022/03/11 08:31:24;;;;;;;13.83;9.60;;;;;;;;;;5066258;28;20255;-83
2022/03/11 08:33:50;;;;;;;15.10;9.73;;;;;;;;;;5076076;28;20193;-86
2022/03/11 08:36:16;;;;;;;12.90;9.37;;;;;;;;;;5057224;28;20201;-84
2022/03/11 08:38:42;;;;;;;12.67;9.80;;;;;;;;;;5079157;28;20181;-84
2022/03/11 08:41:09;;;;;;;14.37;10.40;;;;;;;;;;5071824;28;20247;-82
2022/03/11 08:43:38;;;;;;;14.17;9.67;;;;;;;;;;5070965;28;20193;-86
2022/03/11 08:46:05;;;;;;;14.33;9.83;;;;;;;;;;5074107;28;20187;-87
2022/03/11 08:48:31;;;;;;;14.73;9.97;;;;;;;;;;5049713;28;20186;-85
2022/03/11 08:50:57;;;;;;;13.50;9.73;;;;;;;;;;5073304;28;20204;-85
2022/03/11 08:53:23;;;;;;;17.80;10.70;;;;;;;;;;5044625;28;20323;-85
2022/03/11 08:55:49;;;;;;;15.63;9.83;;;;;;;;;;5082267;28;20185;-84
2022/03/11 08:58:15;;;;;;;14.87;9.63;;;;;;;;;;5072950;28;20184;-86
2022/03/11 09:00:42;;;;;;;14.90;9.60;;;;;;;;;;5054828;28;20309;-86
2022/03/11 09:03:08;;;;;;;17.33;10.60;;;;;;;;;;5089303;28;20189;-86
2022/03/11 09:05:34;;;;;;;16.60;10.83;;;;;;;;;;5064383;28;20181;-85
2022/03/11 09:08:01;;;;;;;13.70;9.67;;;;;;;;;;5076376;28;20805;-84
2022/03/11 09:10:28;;;;;;;14.63;10.10;;;;;;;;;;5079863;28;20197;-85
2022/03/11 09:12:54;;;;;;;14.60;10.57;;;;;;;;;;5077444;28;20680;-85
2022/03/11 09:15:20;;;;;;;15.23;9.50;;;;;;;;;;5046623;28;20243;-85
2022/03/11 09:17:47;;;;;;;15.60;10.17;;;;;;;;;;5061428;28;20189;-84
2022/03/11 09:20:14;;;;;;;15.27;10.00;;;;;;;;;;5077933;28;20707;-84
2022/03/11 09:22:41;;;;;;;14.03;10.37;;;;;;;;;;5051647;28;20187;-85
2022/03/11 09:25:07;;;;;;;15.23;10.53;;;;;;;;;;5075827;28;20316;-85
2022/03/11 09:27:34;;;;;;;14.80;9.80;;;;;;;;;;5058554;28;20189;-85
2022/03/11 09:30:00;;;;;;;13.70;9.70;;;;;;;;;;5074083;28;20201;-85
2022/03/11 09:32:26;;;;;;;13.17;9.73;;;;;;;;;;5076093;28;20213;-85
2022/03/11 09:34:53;;;;;;;15.30;10.23;;;;;;;;;;5060818;28;20270;-85
2022/03/11 09:37:20;;;;;;;14.53;10.17;;;;;;;;;;5063230;28;20243;-85
2022/03/11 09:39:46;;;;;;;13.43;9.67;;;;;;;;;;5061586;28;20233;-85
2022/03/11 09:42:12;;;;;;;14.27;11.00;;;;;;;;;;5077005;28;20686;-85
2022/03/11 09:44:40;;;;;;;13.07;9.87;;;;;;;;;;5061516;28;20186;-86
2022/03/11 09:47:07;;;;;;;14.37;9.63;;;;;;;;;;5055308;28;20246;-85
2022/03/11 09:49:35;;;;;;;14.63;10.67;;;;;;;;;;5073843;28;20177;-85
2022/03/11 09:52:07;;;;;;;14.17;9.27;;;;;;;;;;5060044;28;20185;-85
2022/03/11 09:54:34;;;;;;;15.47;10.30;;;;;;;;;;5075632;28;20185;-85
2022/03/11 09:57:00;;;;;;;16.00;10.13;;;;;;;;;;5057318;28;20185;-85
2022/03/11 09:59:27;;;;;;;15.23;10.90;;;;;;;;;;5078195;28;20205;-85
2022/03/11 10:01:54;;;;;;;13.97;10.07;;;;;;;;;;5051456;28;20216;-85
2022/03/11 10:04:21;;;;;;;12.80;9.33;;;;;;;;;;5070453;28;20355;-85
2022/03/11 10:06:48;;;;;;;13.63;9.43;;;;;;;;;;5044019;28;20244;-84
2022/03/11 10:09:19;;;;;;;15.77;10.00;;;;;;;;;;5070207;28;20220;-84
2022/03/11 10:11:56;;;;;;;15.23;10.10;;;;;;;;;;5043373;28;20223;-84
2022/03/11 10:14:29;;;;;;;16.43;10.80;;;;;;;;;;5061513;28;20650;-85
2022/03/11 10:16:55;;;;;;;14.10;10.07;;;;;;;;;;5078972;28;20196;-85
2022/03/11 10:19:22;;;;;;;15.53;9.97;;;;;;;;;;5046522;28;20209;-85
2022/03/11 10:21:50;;;;;;;12.73;9.17;;;;;;;;;;5059143;28;20213;-85
2022/03/11 10:24:18;;;;;;;16.20;10.37;;;;;;;;;;5061076;28;20196;-85
2022/03/11 10:26:46;;;;;;;16.13;9.77;;;;;;;;;;5056948;28;20185;-87
2022/03/11 10:29:14;;;;;;;16.63;9.70;;;;;;;;;;5095916;28;20230;-85
2022/03/11 10:31:45;;;;;;;13.20;9.60;;;;;;;;;;5077236;28;20235;-85
2022/03/11 10:34:25;;;;;;;13.27;9.73;;;;;;;;;;5058913;28;20185;-85
2022/03/11 10:36:54;;;;;;;13.13;9.33;;;;;;;;;;5046466;28;20209;-85
2022/03/11 10:39:27;;;;;;;12.53;9.27;;;;;;;;;;5057083;28;20273;-85
2022/03/11 10:41:55;;;;;;;13.43;9.67;;;;;;;;;;5074107;28;20223;-84
2022/03/11 10:44:23;;;;;;;15.17;9.33;;;;;;;;;;5078368;28;20184;-85
2022/03/11 10:46:50;;;;;;;15.13;9.60;;;;;;;;;;5068657;28;20209;-85
2022/03/11 10:49:32;;;;;;;13.93;10.57;;;;;;;;;;5058391;28;20213;-85
2022/03/11 10:51:59;;;;;;;13.90;10.30;;;;;;;;;;5059567;28;20192;-85
2022/03/11 10:54:26;;;;;;;14.03;10.37;;;;;;;;;;5057931;28;20230;-85
2022/03/11 10:56:53;;;;;;;16.53;10.67;;;;;;;;;;5074030;28;20280;-85
2022/03/11 10:59:22;;;;;;;13.77;10.63;;;;;;;;;;5057269;28;20220;-85
2022/03/11 11:01:51;;;;;;;12.70;9.93;;;;;;;;;;5078252;28;20335;-85
2022/03/11 11:04:18;;;;;;;13.30;9.73;;;;;;;;;;5079753;28;20211;-85
2022/03/11 11:06:45;;;;;;;13.47;10.50;;;;;;;;;;5064829;28;20184;-88
2022/03/11 11:09:12;;;;;;;14.00;10.10;;;;;;;;;;5073324;28;20659;-81
2022/03/11 11:11:39;;;;;;;16.17;10.47;;;;;;;;;;5074433;28;20209;-86
2022/03/11 11:14:07;;;;;;;13.90;10.20;;;;;;;;;;5071526;28;20736;-84
2022/03/11 11:16:39;;;;;;;14.53;10.57;;;;;;;;;;5056115;28;20292;-85
2022/03/11 11:19:07;;;;;;;17.13;10.20;;;;;;;;;;5085736;28;20189;-85
2022/03/11 11:21:35;;;;;;;16.27;10.17;;;;;;;;;;5063004;28;20201;-85
2022/03/11 11:24:02;;;;;;;13.10;9.60;;;;;;;;;;5074738;28;20193;-85
2022/03/11 11:26:28;;;;;;;13.47;10.13;;;;;;;;;;5037297;28;20208;-85
2022/03/11 11:28:57;;;;;;;12.70;9.43;;;;;;;;;;5087184;28;20185;-85
2022/03/11 11:31:24;;;;;;;14.80;9.87;;;;;;;;;;5054094;28;20209;-85
2022/03/11 11:33:51;;;;;;;14.30;10.37;;;;;;;;;;5056246;28;20177;-84
2022/03/11 11:36:34;;;;;;;13.83;10.10;;;;;;;;;;5059893;28;20181;-85
2022/03/11 11:39:07;;;;;;;15.53;10.43;;;;;;;;;;5054730;28;20181;-85
2022/03/11 11:41:36;;;;;;;13.40;10.07;;;;;;;;;;5042546;28;20204;-85
2022/03/11 11:44:04;;;;;;;12.33;9.27;;;;;;;;;;5067597;28;20220;-84
2022/03/11 11:46:31;;;;;;;14.83;9.87;;;;;;;;;;5050125;28;20210;-85
2022/03/11 11:48:59;;;;;;;15.40;10.27;;;;;;;;;;5073073;28;20702;-84
2022/03/11 11:51:35;;;;;;;12.50;9.53;;;;;;;;;;5059941;28;20201;-85
2022/03/11 11:54:08;;;;;;;14.63;10.40;;;;;;;;;;5073340;28;20207;-85
2022/03/11 11:56:36;;;;;;;12.83;10.57;;;;;;;;;;5059002;28;20192;-85
2022/03/11 11:59:03;;;;;;;15.90;12.00;;;;;;;;;;5069796;28;20826;-85
2022/03/11 12:01:42;;;;;;;13.40;10.20;;;;;;;;;;5071668;28;20225;-85
2022/03/11 12:04:21;;;;;;;12.90;10.73;;;;;;;;;;5035338;28;20181;-85
2022/03/11 12:07:00;;;;;;;12.40;10.00;;;;;;;;;;5037596;28;20181;-86
2022/03/11 12:10:01;;;;;;;12.43;9.57;;;;;;;;;;5064776;28;20185;-85
2022/03/11 12:12:25;;;;;;;12.90;10.27;;;;;;;;;;5070969;28;20220;-85
2022/03/11 12:15:01;;;;;;;13.97;9.97;;;;;;;;;;5064838;28;20283;-85
2022/03/11 12:17:36;;;;;;;13.10;10.70;;;;;;;;;;5068238;28;20275;-83
2022/03/11 12:20:24;;;;;;;13.27;10.27;;;;;;;;;;5071346;28;20232;-83
2022/03/11 12:22:57;;;;;;;14.50;10.33;;;;;;;;;;5083376;28;20185;-89
2022/03/11 12:25:31;;;;;;;13.70;10.60;;;;;;;;;;5069575;28;20228;-87
2022/03/11 12:27:59;;;;;;;14.00;11.13;;;;;;;;;;5050553;28;20221;-87
2022/03/11 12:30:26;;;;;;;13.67;10.60;;;;;;;;;;5056721;28;20292;-87
2022/03/11 12:32:52;;;;;;;13.97;10.20;;;;;;;;;;5060839;28;20710;-87
2022/03/11 12:35:20;;;;;;;14.50;10.40;;;;;;;;;;5057696;28;20180;-87
2022/03/11 12:37:47;;;;;;;10.90;9.70;;;;;;;;;;5066087;28;20279;-86
2022/03/11 12:40:13;;;;;;;11.93;10.30;;;;;;;;;;5078358;28;20209;-81
2022/03/11 12:42:40;;;;;;;14.30;11.00;;;;;;;;;;5075202;28;20185;-80
2022/03/11 12:45:07;;;;;;;14.00;11.27;;;;;;;;;;5066747;28;20174;-81
2022/03/11 12:47:37;;;;;;;11.67;9.93;;;;;;;;;;5054132;28;20170;-80
2022/03/11 12:50:05;;;;;;;10.87;9.70;;;;;;;;;;5072609;28;20268;-81
2022/03/11 12:52:41;;;;;;;14.20;10.70;;;;;;;;;;5081686;28;20212;-81
2022/03/11 12:55:25;;;;;;;12.90;11.13;;;;;;;;;;5077370;28;20211;-79
2022/03/11 12:57:53;;;;;;;13.57;10.50;;;;;;;;;;5073297;28;20192;-82
2022/03/11 13:00:20;;;;;;;11.37;10.10;;;;;;;;;;5056909;28;20217;-81
2022/03/11 13:02:47;;;;;;;11.63;10.20;;;;;;;;;;5078566;28;20177;-82
2022/03/11 13:05:24;;;;;;;13.37;10.50;;;;;;;;;;5045639;28;20182;-86
2022/03/11 13:07:51;;;;;;;11.20;10.10;;;;;;;;;;5077811;28;20465;-83
2022/03/11 13:10:26;;;;;;;11.83;10.40;;;;;;;;;;5076161;28;20198;-82
2022/03/11 13:12:53;;;;;;;11.87;10.67;;;;;;;;;;5073182;28;20193;-82
2022/03/11 13:15:23;;;;;;;12.53;10.70;;;;;;;;;;5049878;28;20185;-86
2022/03/11 13:18:10;;;;;;;11.90;10.70;;;;;;;;;;5062990;28;20193;-82
2022/03/11 13:20:45;;;;;;;13.33;11.07;;;;;;;;;;5055178;28;20624;-83
2022/03/11 13:23:17;;;;;;;13.13;10.20;;;;;;;;;;5066281;28;20220;-85
2022/03/11 13:25:58;;;;;;;11.10;10.00;;;;;;;;;;5045585;28;20188;-86
2022/03/11 13:28:25;;;;;;;12.23;9.87;;;;;;;;;;5072044;28;20208;-83
2022/03/11 13:30:53;;;;;;;11.73;10.60;;;;;;;;;;5068982;28;20745;-83
2022/03/11 13:33:21;;;;;;;11.77;10.17;;;;;;;;;;5077895;28;20189;-82
2022/03/11 13:35:48;;;;;;;12.87;10.07;;;;;;;;;;5072620;28;20671;-83
2022/03/11 13:38:34;;;;;;;10.53;9.43;;;;;;;;;;5069761;28;20177;-83
2022/03/11 13:41:00;;;;;;;11.23;10.07;;;;;;;;;;5072360;28;20217;-83
2022/03/11 13:43:26;;;;;;;10.67;9.57;;;;;;;;;;5082281;28;20181;-84
2022/03/11 13:45:55;;;;;;;11.00;9.90;;;;;;;;;;5069172;28;20657;-83
2022/03/11 13:48:29;;;;;;;11.77;9.90;;;;;;;;;;5074765;28;20193;-83
2022/03/11 13:51:03;;;;;;;13.33;10.47;;;;;;;;;;5071193;28;20225;-83
2022/03/11 13:53:30;;;;;;;11.03;9.80;;;;;;;;;;5072730;28;20242;-82
2022/03/11 13:56:00;;;;;;;12.37;10.00;;;;;;;;;;5057413;28;20757;-83
2022/03/11 13:58:27;;;;;;;11.00;9.90;;;;;;;;;;5073260;28;20189;-83
2022/03/11 14:00:55;;;;;;;11.67;9.97;;;;;;;;;;5043154;28;20229;-84
2022/03/11 14:03:25;;;;;;;10.70;9.60;;;;;;;;;;5077298;28;20210;-83
2022/03/11 14:05:53;;;;;;;10.97;9.80;;;;;;;;;;5076229;28;20181;-83
2022/03/11 14:08:26;;;;;;;10.60;9.50;;;;;;;;;;5075293;28;20252;-83
2022/03/11 14:10:54;;;;;;;11.47;9.73;;;;;;;;;;5048893;28;20733;-83
2022/03/11 14:13:28;;;;;;;14.47;9.80;;;;;;;;;;5060359;28;20189;-83
2022/03/11 14:15:54;;;;;;;10.77;9.63;;;;;;;;;;5079273;28;20272;-82
2022/03/11 14:18:22;;;;;;;12.43;10.10;;;;;;;;;;5097000;28;20181;-82
2022/03/11 14:20:49;;;;;;;10.50;9.40;;;;;;;;;;5079333;28;20243;-82
2022/03/11 14:23:15;;;;;;;12.37;9.63;;;;;;;;;;5061587;28;20201;-83
2022/03/11 14:25:42;;;;;;;10.27;9.10;;;;;;;;;;5095060;28;20173;-82